sensor_id;sensor_type;location;lat;lon;timestamp;pressure;altitude;pressure_sealevel;temperature;humidity
21869;BME280;11099;41.564;23.296;2023-04-29T00:01:01;97761.28;;;11.80;89.45
21869;BME280;11099;41.564;23.296;2023-04-29T00:03:27;97735.94;;;11.92;89.18
21869;BME280;11099;41.564;23.296;2023-04-29T00:05:56;97670.94;;;11.48;89.25
21869;BME280;11099;41.564;23.296;2023-04-29T00:08:21;97729.13;;;11.77;88.70
21869;BME280;11099;41.564;23.296;2023-04-29T00:10:47;97674.72;;;11.47;88.32
21869;BME280;11099;41.564;23.296;2023-04-29T00:13:12;97682.25;;;11.53;88.67
21869;BME280;11099;41.564;23.296;2023-04-29T00:15:40;97728.88;;;11.87;88.30
21869;BME280;11099;41.564;23.296;2023-04-29T00:18:06;97742.25;;;11.96;89.18
21869;BME280;11099;41.564;23.296;2023-04-29T00:20:31;97726.28;;;12.13;87.62
21869;BME280;11099;41.564;23.296;2023-04-29T00:22:57;97676.72;;;11.81;86.75
21869;BME280;11099;41.564;23.296;2023-04-29T00:25:22;97633.75;;;11.43;87.47
21869;BME280;11099;41.564;23.296;2023-04-29T00:27:48;97754.59;;;12.40;86.23
21869;BME280;11099;41.564;23.296;2023-04-29T00:30:13;97668.06;;;11.75;87.32
21869;BME280;11099;41.564;23.296;2023-04-29T00:32:39;97760.88;;;12.27;87.28
21869;BME280;11099;41.564;23.296;2023-04-29T00:35:05;97746.66;;;12.00;88.85
21869;BME280;11099;41.564;23.296;2023-04-29T00:37:31;97732.06;;;12.06;88.32
21869;BME280;11099;41.564;23.296;2023-04-29T00:39:57;97745.59;;;12.19;87.65
21869;BME280;11099;41.564;23.296;2023-04-29T00:42:24;97678.94;;;11.79;87.76
21869;BME280;11099;41.564;23.296;2023-04-29T00:44:50;97653.25;;;11.83;86.80
21869;BME280;11099;41.564;23.296;2023-04-29T00:47:15;97721.94;;;12.34;85.87
21869;BME280;11099;41.564;23.296;2023-04-29T00:49:42;97623.31;;;12.03;84.37
21869;BME280;11099;41.564;23.296;2023-04-29T00:52:10;97700.94;;;12.59;83.74
21869;BME280;11099;41.564;23.296;2023-04-29T00:54:36;97722.03;;;12.03;87.26
21869;BME280;11099;41.564;23.296;2023-04-29T00:57:03;97712.53;;;12.54;85.08
21869;BME280;11099;41.564;23.296;2023-04-29T00:59:30;97663.84;;;12.31;83.47
21869;BME280;11099;41.564;23.296;2023-04-29T01:02:00;97724.31;;;12.62;84.27
21869;BME280;11099;41.564;23.296;2023-04-29T01:04:27;97710.34;;;12.82;82.22
21869;BME280;11099;41.564;23.296;2023-04-29T01:12:25;97725.75;;;12.77;82.48
21869;BME280;11099;41.564;23.296;2023-04-29T01:17:30;97684.72;;;12.38;83.43
21869;BME280;11099;41.564;23.296;2023-04-29T01:19:59;97718.22;;;12.70;82.86
21869;BME280;11099;41.564;23.296;2023-04-29T01:22:26;97720.69;;;12.58;83.51
21869;BME280;11099;41.564;23.296;2023-04-29T01:24:51;97738.16;;;12.55;84.13
21869;BME280;11099;41.564;23.296;2023-04-29T01:35:53;97732.13;;;12.15;86.70
21869;BME280;11099;41.564;23.296;2023-04-29T01:39:04;97737.69;;;11.88;88.07
21869;BME280;11099;41.564;23.296;2023-04-29T01:41:43;97733.22;;;11.21;91.21
21869;BME280;11099;41.564;23.296;2023-04-29T01:44:21;97742.53;;;10.87;93.96
21869;BME280;11099;41.564;23.296;2023-04-29T01:46:52;97694.31;;;10.66;92.08
21869;BME280;11099;41.564;23.296;2023-04-29T01:49:24;97679.81;;;10.81;89.89
21869;BME280;11099;41.564;23.296;2023-04-29T01:51:50;97682.38;;;10.64;91.68
21869;BME280;11099;41.564;23.296;2023-04-29T01:54:15;97731.38;;;10.99;90.54
21869;BME280;11099;41.564;23.296;2023-04-29T01:56:41;97728.19;;;10.74;91.58
21869;BME280;11099;41.564;23.296;2023-04-29T01:59:07;97660.63;;;9.70;94.33
21869;BME280;11099;41.564;23.296;2023-04-29T02:01:33;97745.69;;;10.53;92.75
21869;BME280;11099;41.564;23.296;2023-04-29T02:03:58;97737.34;;;11.04;91.10
21869;BME280;11099;41.564;23.296;2023-04-29T02:06:24;97714.88;;;10.74;89.97
21869;BME280;11099;41.564;23.296;2023-04-29T02:08:51;97711.06;;;10.67;90.64
21869;BME280;11099;41.564;23.296;2023-04-29T02:11:16;97749.34;;;11.47;88.64
21869;BME280;11099;41.564;23.296;2023-04-29T02:13:42;97755.91;;;11.94;86.70
21869;BME280;11099;41.564;23.296;2023-04-29T02:16:12;97749.16;;;11.97;85.40
21869;BME280;11099;41.564;23.296;2023-04-29T02:18:37;97769.06;;;11.91;85.85
21869;BME280;11099;41.564;23.296;2023-04-29T02:21:04;97758.16;;;12.09;84.81
21869;BME280;11099;41.564;23.296;2023-04-29T02:23:30;97765.75;;;12.33;83.68
21869;BME280;11099;41.564;23.296;2023-04-29T02:25:56;97719.88;;;12.23;82.58
21869;BME280;11099;41.564;23.296;2023-04-29T02:28:21;97662.41;;;11.68;82.82
21869;BME280;11099;41.564;23.296;2023-04-29T02:30:48;97691.63;;;11.11;85.59
21869;BME280;11099;41.564;23.296;2023-04-29T02:33:14;97702.28;;;10.30;93.57
21869;BME280;11099;41.564;23.296;2023-04-29T02:35:39;97662.47;;;10.61;92.46
21869;BME280;11099;41.564;23.296;2023-04-29T02:38:05;97751.59;;;11.53;89.41
21869;BME280;11099;41.564;23.296;2023-04-29T02:40:30;97739.47;;;11.78;87.66
21869;BME280;11099;41.564;23.296;2023-04-29T02:42:55;97745.94;;;12.17;86.03
21869;BME280;11099;41.564;23.296;2023-04-29T02:45:21;97745.28;;;11.80;86.01
21869;BME280;11099;41.564;23.296;2023-04-29T02:47:47;97751.59;;;11.53;87.54
21869;BME280;11099;41.564;23.296;2023-04-29T02:50:13;97651.03;;;10.24;91.16
21869;BME280;11099;41.564;23.296;2023-04-29T02:52:38;97691.09;;;10.55;92.38
21869;BME280;11099;41.564;23.296;2023-04-29T02:55:06;97678.53;;;11.23;88.36
21869;BME280;11099;41.564;23.296;2023-04-29T02:57:32;97736.13;;;11.64;85.79
21869;BME280;11099;41.564;23.296;2023-04-29T02:59:58;97643.97;;;11.09;85.66
21869;BME280;11099;41.564;23.296;2023-04-29T03:02:23;97659.81;;;10.84;87.04
21869;BME280;11099;41.564;23.296;2023-04-29T03:04:49;97678.09;;;10.99;87.83
21869;BME280;11099;41.564;23.296;2023-04-29T03:07:14;97642.00;;;10.12;89.40
21869;BME280;11099;41.564;23.296;2023-04-29T03:09:41;97739.16;;;10.59;94.50
21869;BME280;11099;41.564;23.296;2023-04-29T03:12:07;97705.63;;;10.72;91.66
21869;BME280;11099;41.564;23.296;2023-04-29T03:14:32;97749.59;;;10.69;91.91
21869;BME280;11099;41.564;23.296;2023-04-29T03:16:58;97633.53;;;9.96;93.08
21869;BME280;11099;41.564;23.296;2023-04-29T03:19:23;97741.28;;;10.85;92.03
21869;BME280;11099;41.564;23.296;2023-04-29T03:21:49;97667.25;;;10.37;92.74
21869;BME280;11099;41.564;23.296;2023-04-29T03:24:14;97658.31;;;10.19;94.54
21869;BME280;11099;41.564;23.296;2023-04-29T03:26:40;97659.59;;;10.21;93.56
21869;BME280;11099;41.564;23.296;2023-04-29T03:29:07;97697.91;;;10.20;96.75
21869;BME280;11099;41.564;23.296;2023-04-29T03:31:33;97754.78;;;10.88;94.13
21869;BME280;11099;41.564;23.296;2023-04-29T03:33:58;97642.16;;;10.29;92.45
21869;BME280;11099;41.564;23.296;2023-04-29T03:36:24;97750.59;;;11.18;91.19
21869;BME280;11099;41.564;23.296;2023-04-29T03:38:49;97777.31;;;11.49;89.45
21869;BME280;11099;41.564;23.296;2023-04-29T03:41:15;97738.53;;;11.43;88.24
21869;BME280;11099;41.564;23.296;2023-04-29T03:43:41;97750.72;;;11.35;88.45
21869;BME280;11099;41.564;23.296;2023-04-29T03:46:10;97673.03;;;10.97;87.96
21869;BME280;11099;41.564;23.296;2023-04-29T03:48:35;97685.44;;;10.07;91.50
21869;BME280;11099;41.564;23.296;2023-04-29T03:51:02;97738.25;;;10.77;91.48
21869;BME280;11099;41.564;23.296;2023-04-29T03:53:28;97671.66;;;9.91;92.31
21869;BME280;11099;41.564;23.296;2023-04-29T03:55:54;97742.84;;;9.20;100.00
21869;BME280;11099;41.564;23.296;2023-04-29T03:58:20;97730.16;;;10.33;97.42
21869;BME280;11099;41.564;23.296;2023-04-29T04:00:47;97798.13;;;10.52;96.07
21869;BME280;11099;41.564;23.296;2023-04-29T04:03:13;97798.03;;;10.16;99.99
21869;BME280;11099;41.564;23.296;2023-04-29T04:05:38;97809.06;;;10.10;100.00
21869;BME280;11099;41.564;23.296;2023-04-29T04:08:04;97733.13;;;9.90;100.00
21869;BME280;11099;41.564;23.296;2023-04-29T04:10:30;97793.81;;;10.43;99.09
21869;BME280;11099;41.564;23.296;2023-04-29T04:12:55;97761.44;;;10.99;95.46
21869;BME280;11099;41.564;23.296;2023-04-29T04:15:21;97806.66;;;10.91;94.52
21869;BME280;11099;41.564;23.296;2023-04-29T04:17:46;97736.28;;;11.37;90.95
21869;BME280;11099;41.564;23.296;2023-04-29T04:20:12;97787.06;;;11.85;90.28
21869;BME280;11099;41.564;23.296;2023-04-29T04:22:38;97777.66;;;11.12;93.39
21869;BME280;11099;41.564;23.296;2023-04-29T04:25:04;97663.16;;;10.31;94.21
21869;BME280;11099;41.564;23.296;2023-04-29T04:27:29;97781.59;;;11.37;93.71
21869;BME280;11099;41.564;23.296;2023-04-29T04:29:55;97802.38;;;11.71;91.56
21869;BME280;11099;41.564;23.296;2023-04-29T04:32:21;97784.81;;;11.78;92.59
21869;BME280;11099;41.564;23.296;2023-04-29T04:34:48;97783.38;;;11.95;90.97
21869;BME280;11099;41.564;23.296;2023-04-29T04:37:13;97689.94;;;11.46;89.26
21869;BME280;11099;41.564;23.296;2023-04-29T04:39:45;97774.00;;;12.06;88.82
21869;BME280;11099;41.564;23.296;2023-04-29T04:42:11;97759.94;;;11.92;90.88
21869;BME280;11099;41.564;23.296;2023-04-29T04:44:36;97767.16;;;11.91;90.04
21869;BME280;11099;41.564;23.296;2023-04-29T04:47:02;97692.16;;;11.22;90.51
21869;BME280;11099;41.564;23.296;2023-04-29T04:49:27;97749.84;;;11.49;91.62
21869;BME280;11099;41.564;23.296;2023-04-29T04:51:53;97813.84;;;11.49;92.21
21869;BME280;11099;41.564;23.296;2023-04-29T04:54:19;97790.91;;;11.70;91.03
21869;BME280;11099;41.564;23.296;2023-04-29T04:56:44;97727.47;;;11.05;89.98
21869;BME280;11099;41.564;23.296;2023-04-29T04:59:10;97693.56;;;10.74;89.59
21869;BME280;11099;41.564;23.296;2023-04-29T05:01:36;97695.28;;;9.93;91.38
21869;BME280;11099;41.564;23.296;2023-04-29T05:04:01;97792.53;;;10.13;94.98
21869;BME280;11099;41.564;23.296;2023-04-29T05:06:27;97730.81;;;9.56;95.47
21869;BME280;11099;41.564;23.296;2023-04-29T05:08:53;97803.25;;;10.49;93.22
21869;BME280;11099;41.564;23.296;2023-04-29T05:11:20;97766.31;;;10.06;95.76
21869;BME280;11099;41.564;23.296;2023-04-29T05:13:46;97772.13;;;10.49;94.60
21869;BME280;11099;41.564;23.296;2023-04-29T05:16:12;97741.59;;;10.33;93.11
21869;BME280;11099;41.564;23.296;2023-04-29T05:18:38;97798.72;;;10.77;93.87
21869;BME280;11099;41.564;23.296;2023-04-29T05:21:03;97767.91;;;11.07;92.59
21869;BME280;11099;41.564;23.296;2023-04-29T05:23:29;97775.88;;;11.21;90.64
21869;BME280;11099;41.564;23.296;2023-04-29T05:25:55;97766.09;;;11.39;89.59
21869;BME280;11099;41.564;23.296;2023-04-29T05:28:20;97819.41;;;11.83;88.90
21869;BME280;11099;41.564;23.296;2023-04-29T05:30:49;97796.63;;;12.17;88.11
21869;BME280;11099;41.564;23.296;2023-04-29T05:33:15;97799.22;;;12.00;85.52
21869;BME280;11099;41.564;23.296;2023-04-29T05:35:40;97786.59;;;11.83;83.55
21869;BME280;11099;41.564;23.296;2023-04-29T05:38:06;97741.19;;;12.05;80.60
21869;BME280;11099;41.564;23.296;2023-04-29T05:40:31;97814.66;;;12.60;81.14
21869;BME280;11099;41.564;23.296;2023-04-29T05:42:57;97798.97;;;12.67;82.59
21869;BME280;11099;41.564;23.296;2023-04-29T05:45:22;97811.09;;;12.25;87.26
21869;BME280;11099;41.564;23.296;2023-04-29T05:47:48;97783.06;;;12.53;87.90
21869;BME280;11099;41.564;23.296;2023-04-29T05:50:13;97785.25;;;12.43;88.69
21869;BME280;11099;41.564;23.296;2023-04-29T05:52:39;97816.59;;;11.89;92.98
21869;BME280;11099;41.564;23.296;2023-04-29T05:55:05;97780.31;;;11.56;96.78
21869;BME280;11099;41.564;23.296;2023-04-29T05:57:33;97711.81;;;11.34;96.78
21869;BME280;11099;41.564;23.296;2023-04-29T05:59:59;97731.72;;;11.59;94.55
21869;BME280;11099;41.564;23.296;2023-04-29T06:02:25;97706.75;;;11.24;97.87
21869;BME280;11099;41.564;23.296;2023-04-29T06:04:51;97720.66;;;11.44;98.26
21869;BME280;11099;41.564;23.296;2023-04-29T06:07:17;97776.44;;;11.40;100.00
21869;BME280;11099;41.564;23.296;2023-04-29T06:09:43;97718.44;;;11.15;99.38
21869;BME280;11099;41.564;23.296;2023-04-29T06:12:09;97745.31;;;11.49;99.90
21869;BME280;11099;41.564;23.296;2023-04-29T06:14:34;97680.97;;;11.42;98.34
21869;BME280;11099;41.564;23.296;2023-04-29T06:17:00;97665.75;;;11.43;98.60
21869;BME280;11099;41.564;23.296;2023-04-29T06:19:26;97814.66;;;12.60;96.91
21869;BME280;11099;41.564;23.296;2023-04-29T06:21:51;97694.03;;;11.83;94.24
21869;BME280;11099;41.564;23.296;2023-04-29T06:24:17;97739.19;;;12.28;92.94
21869;BME280;11099;41.564;23.296;2023-04-29T06:26:42;97771.00;;;12.73;91.25
21869;BME280;11099;41.564;23.296;2023-04-29T06:29:08;97794.88;;;13.13;88.56
21869;BME280;11099;41.564;23.296;2023-04-29T06:31:34;97766.16;;;13.18;86.66
21869;BME280;11099;41.564;23.296;2023-04-29T06:33:59;97751.34;;;13.38;85.84
21869;BME280;11099;41.564;23.296;2023-04-29T06:36:24;97780.81;;;13.85;85.48
21869;BME280;11099;41.564;23.296;2023-04-29T06:38:51;97731.94;;;13.59;85.01
21869;BME280;11099;41.564;23.296;2023-04-29T06:41:17;97736.28;;;13.08;86.97
21869;BME280;11099;41.564;23.296;2023-04-29T06:43:42;97798.81;;;14.14;85.30
21869;BME280;11099;41.564;23.296;2023-04-29T06:46:09;97793.97;;;14.37;81.45
21869;BME280;11099;41.564;23.296;2023-04-29T06:48:35;97678.66;;;14.96;75.93
21869;BME280;11099;41.564;23.296;2023-04-29T06:51:01;97718.88;;;15.87;73.06
21869;BME280;11099;41.564;23.296;2023-04-29T06:53:26;97705.16;;;15.89;70.19
21869;BME280;11099;41.564;23.296;2023-04-29T06:55:52;97655.50;;;16.35;67.72
21869;BME280;11099;41.564;23.296;2023-04-29T06:58:18;97705.00;;;17.15;65.05
21869;BME280;11099;41.564;23.296;2023-04-29T07:00:45;97642.31;;;15.32;69.97
21869;BME280;11099;41.564;23.296;2023-04-29T07:03:11;97725.56;;;16.54;70.17
21869;BME280;11099;41.564;23.296;2023-04-29T07:05:37;97672.97;;;16.41;68.35
21869;BME280;11099;41.564;23.296;2023-04-29T07:08:07;97756.38;;;15.96;71.16
21869;BME280;11099;41.564;23.296;2023-04-29T07:10:34;97751.66;;;15.47;73.36
21869;BME280;11099;41.564;23.296;2023-04-29T07:13:00;97638.28;;;15.14;72.93
21869;BME280;11099;41.564;23.296;2023-04-29T07:15:26;97768.25;;;16.19;69.50
21869;BME280;11099;41.564;23.296;2023-04-29T07:17:52;97718.56;;;16.13;69.69
21869;BME280;11099;41.564;23.296;2023-04-29T07:20:18;97722.16;;;15.47;70.08
21869;BME280;11099;41.564;23.296;2023-04-29T07:22:44;97673.56;;;15.61;70.59
21869;BME280;11099;41.564;23.296;2023-04-29T07:25:10;97638.88;;;15.32;71.48
21869;BME280;11099;41.564;23.296;2023-04-29T07:27:36;97669.50;;;14.97;74.44
21869;BME280;11099;41.564;23.296;2023-04-29T07:30:03;97573.94;;;14.68;73.65
21869;BME280;11099;41.564;23.296;2023-04-29T07:32:29;97587.13;;;15.43;71.89
21869;BME280;11099;41.564;23.296;2023-04-29T07:34:56;97740.22;;;17.09;67.46
21869;BME280;11099;41.564;23.296;2023-04-29T07:37:22;97675.41;;;16.46;65.76
21869;BME280;11099;41.564;23.296;2023-04-29T07:39:47;97630.91;;;16.33;64.01
21869;BME280;11099;41.564;23.296;2023-04-29T07:42:13;97636.88;;;16.02;66.80
21869;BME280;11099;41.564;23.296;2023-04-29T07:44:38;97696.25;;;16.49;67.27
21869;BME280;11099;41.564;23.296;2023-04-29T07:47:04;97627.38;;;16.04;66.63
21869;BME280;11099;41.564;23.296;2023-04-29T07:49:29;97679.22;;;16.45;66.74
21869;BME280;11099;41.564;23.296;2023-04-29T07:51:55;97666.63;;;16.62;64.68
21869;BME280;11099;41.564;23.296;2023-04-29T07:54:20;97624.50;;;15.85;64.54
21869;BME280;11099;41.564;23.296;2023-04-29T07:56:47;97622.72;;;15.77;65.35
21869;BME280;11099;41.564;23.296;2023-04-29T07:59:13;97617.44;;;15.93;66.22
21869;BME280;11099;41.564;23.296;2023-04-29T08:01:39;97631.59;;;16.58;64.12
21869;BME280;11099;41.564;23.296;2023-04-29T08:04:05;97636.41;;;16.93;61.81
21869;BME280;11099;41.564;23.296;2023-04-29T08:06:32;97699.69;;;17.18;62.67
21869;BME280;11099;41.564;23.296;2023-04-29T08:08:58;97637.56;;;16.11;64.14
21869;BME280;11099;41.564;23.296;2023-04-29T08:11:23;97704.13;;;17.10;63.22
21869;BME280;11099;41.564;23.296;2023-04-29T08:13:50;97656.81;;;16.01;64.99
21869;BME280;11099;41.564;23.296;2023-04-29T08:16:16;97575.63;;;15.55;63.81
21869;BME280;11099;41.564;23.296;2023-04-29T08:18:41;97644.38;;;16.21;63.74
21869;BME280;11099;41.564;23.296;2023-04-29T08:21:07;97557.19;;;16.18;61.53
21869;BME280;11099;41.564;23.296;2023-04-29T08:23:33;97679.72;;;17.03;61.76
21869;BME280;11099;41.564;23.296;2023-04-29T08:25:59;97605.88;;;16.17;64.58
21869;BME280;11099;41.564;23.296;2023-04-29T08:28:25;97638.50;;;16.31;64.49
21869;BME280;11099;41.564;23.296;2023-04-29T08:30:52;97713.31;;;16.81;65.65
21869;BME280;11099;41.564;23.296;2023-04-29T08:33:17;97675.22;;;17.07;62.91
21869;BME280;11099;41.564;23.296;2023-04-29T08:35:43;97566.47;;;16.49;62.34
21869;BME280;11099;41.564;23.296;2023-04-29T08:38:08;97697.75;;;16.75;64.14
21869;BME280;11099;41.564;23.296;2023-04-29T08:40:42;97590.22;;;16.47;64.56
21869;BME280;11099;41.564;23.296;2023-04-29T08:43:15;97691.31;;;16.92;63.26
21869;BME280;11099;41.564;23.296;2023-04-29T08:45:41;97695.41;;;17.61;62.41
21869;BME280;11099;41.564;23.296;2023-04-29T08:48:08;97608.88;;;16.55;63.10
21869;BME280;11099;41.564;23.296;2023-04-29T08:50:40;97649.31;;;17.62;61.43
21869;BME280;11099;41.564;23.296;2023-04-29T08:53:07;97689.72;;;18.29;60.70
21869;BME280;11099;41.564;23.296;2023-04-29T08:55:45;97689.44;;;18.34;61.96
21869;BME280;11099;41.564;23.296;2023-04-29T08:58:12;97692.50;;;18.33;62.28
21869;BME280;11099;41.564;23.296;2023-04-29T09:00:39;97598.25;;;17.82;60.41
21869;BME280;11099;41.564;23.296;2023-04-29T09:03:23;97681.44;;;18.03;61.31
21869;BME280;11099;41.564;23.296;2023-04-29T09:05:55;97667.28;;;17.90;63.21
21869;BME280;11099;41.564;23.296;2023-04-29T09:08:22;97604.09;;;17.36;62.99
21869;BME280;11099;41.564;23.296;2023-04-29T09:10:49;97677.34;;;17.61;62.60
21869;BME280;11099;41.564;23.296;2023-04-29T09:13:41;97676.19;;;18.26;62.78
21869;BME280;11099;41.564;23.296;2023-04-29T09:19:32;97664.50;;;18.57;59.96
21869;BME280;11099;41.564;23.296;2023-04-29T09:22:00;97643.53;;;18.47;58.25
21869;BME280;11099;41.564;23.296;2023-04-29T09:24:27;97661.53;;;18.42;61.17
21869;BME280;11099;41.564;23.296;2023-04-29T09:26:53;97660.16;;;18.33;61.03
21869;BME280;11099;41.564;23.296;2023-04-29T09:29:19;97670.16;;;18.87;60.58
21869;BME280;11099;41.564;23.296;2023-04-29T09:31:45;97586.56;;;18.48;58.24
21869;BME280;11099;41.564;23.296;2023-04-29T09:34:12;97509.94;;;17.56;61.01
21869;BME280;11099;41.564;23.296;2023-04-29T09:36:50;97642.84;;;18.69;56.85
21869;BME280;11099;41.564;23.296;2023-04-29T09:39:22;97546.19;;;18.13;53.09
21869;BME280;11099;41.564;23.296;2023-04-29T09:44:24;97636.44;;;19.42;53.30
21869;BME280;11099;41.564;23.296;2023-04-29T09:47:08;97618.22;;;18.71;55.90
21869;BME280;11099;41.564;23.296;2023-04-29T09:49:36;97624.88;;;19.42;52.17
21869;BME280;11099;41.564;23.296;2023-04-29T09:52:04;97558.31;;;19.04;51.22
21869;BME280;11099;41.564;23.296;2023-04-29T09:54:32;97603.81;;;19.05;48.88
21869;BME280;11099;41.564;23.296;2023-04-29T09:56:59;97581.63;;;19.38;46.81
21869;BME280;11099;41.564;23.296;2023-04-29T09:59:26;97599.50;;;19.46;49.52
21869;BME280;11099;41.564;23.296;2023-04-29T10:01:54;97555.22;;;19.28;46.82
21869;BME280;11099;41.564;23.296;2023-04-29T10:04:21;97582.97;;;19.02;47.58
21869;BME280;11099;41.564;23.296;2023-04-29T10:06:51;97589.81;;;18.77;46.71
21869;BME280;11099;41.564;23.296;2023-04-29T10:09:18;97575.34;;;18.46;46.57
21869;BME280;11099;41.564;23.296;2023-04-29T10:11:48;97497.19;;;18.27;43.68
21869;BME280;11099;41.564;23.296;2023-04-29T10:14:19;97579.13;;;19.03;45.92
21869;BME280;11099;41.564;23.296;2023-04-29T10:16:58;97498.41;;;18.72;44.21
21869;BME280;11099;41.564;23.296;2023-04-29T10:19:56;97492.81;;;17.99;45.25
21869;BME280;11099;41.564;23.296;2023-04-29T10:22:51;97533.16;;;18.15;46.57
21869;BME280;11099;41.564;23.296;2023-04-29T10:25:17;97573.34;;;18.82;43.99
21869;BME280;11099;41.564;23.296;2023-04-29T10:27:44;97569.81;;;19.01;41.57
21869;BME280;11099;41.564;23.296;2023-04-29T10:30:14;97554.03;;;19.26;42.02
21869;BME280;11099;41.564;23.296;2023-04-29T10:32:44;97557.88;;;19.25;40.65
21869;BME280;11099;41.564;23.296;2023-04-29T10:35:11;97553.13;;;19.64;41.43
21869;BME280;11099;41.564;23.296;2023-04-29T10:37:42;97547.94;;;19.29;43.51
21869;BME280;11099;41.564;23.296;2023-04-29T10:42:51;97545.56;;;19.77;39.21
21869;BME280;11099;41.564;23.296;2023-04-29T10:45:25;97488.19;;;19.57;38.07
21869;BME280;11099;41.564;23.296;2023-04-29T10:53:18;97492.81;;;19.30;39.30
21869;BME280;11099;41.564;23.296;2023-04-29T10:55:47;97548.47;;;19.64;40.22
21869;BME280;11099;41.564;23.296;2023-04-29T11:00:58;97555.22;;;19.51;41.08
21869;BME280;11099;41.564;23.296;2023-04-29T11:03:49;97546.31;;;19.73;41.51
21869;BME280;11099;41.564;23.296;2023-04-29T11:06:19;97448.88;;;18.80;40.47
21869;BME280;11099;41.564;23.296;2023-04-29T11:08:44;97436.97;;;18.38;41.31
21869;BME280;11099;41.564;23.296;2023-04-29T11:11:12;97533.19;;;19.00;41.11
21869;BME280;11099;41.564;23.296;2023-04-29T11:13:38;97503.50;;;18.77;40.96
21869;BME280;11099;41.564;23.296;2023-04-29T11:16:05;97530.13;;;19.24;40.90
21869;BME280;11099;41.564;23.296;2023-04-29T11:18:31;97503.69;;;19.10;39.87
21869;BME280;11099;41.564;23.296;2023-04-29T11:23:35;97535.06;;;19.45;42.70
21869;BME280;11099;41.564;23.296;2023-04-29T11:26:01;97521.13;;;19.43;43.08
21869;BME280;11099;41.564;23.296;2023-04-29T11:28:27;97511.88;;;18.91;43.95
21869;BME280;11099;41.564;23.296;2023-04-29T11:30:55;97457.50;;;19.15;43.32
21869;BME280;11099;41.564;23.296;2023-04-29T11:33:21;97511.66;;;19.79;42.57
21869;BME280;11099;41.564;23.296;2023-04-29T11:35:47;97515.75;;;19.43;43.63
21869;BME280;11099;41.564;23.296;2023-04-29T11:38:13;97424.97;;;19.05;45.35
21869;BME280;11099;41.564;23.296;2023-04-29T11:40:47;97510.44;;;19.77;45.58
21869;BME280;11099;41.564;23.296;2023-04-29T11:43:17;97474.25;;;19.55;45.70
21869;BME280;11099;41.564;23.296;2023-04-29T11:45:46;97496.03;;;19.95;45.37
21869;BME280;11099;41.564;23.296;2023-04-29T11:48:28;97430.72;;;19.30;44.97
21869;BME280;11099;41.564;23.296;2023-04-29T11:50:58;97449.56;;;19.26;45.34
21869;BME280;11099;41.564;23.296;2023-04-29T11:53:25;97413.94;;;19.13;44.23
21869;BME280;11099;41.564;23.296;2023-04-29T11:55:54;97501.72;;;19.34;44.94
21869;BME280;11099;41.564;23.296;2023-04-29T11:58:21;97503.59;;;19.30;44.47
21869;BME280;11099;41.564;23.296;2023-04-29T12:00:47;97508.28;;;19.59;43.64
21869;BME280;11099;41.564;23.296;2023-04-29T12:03:17;97455.53;;;19.65;42.65
21869;BME280;11099;41.564;23.296;2023-04-29T12:05:46;97482.81;;;20.20;40.35
21869;BME280;11099;41.564;23.296;2023-04-29T12:08:12;97443.41;;;19.56;41.82
21869;BME280;11099;41.564;23.296;2023-04-29T12:10:39;97452.31;;;19.86;42.05
21869;BME280;11099;41.564;23.296;2023-04-29T12:13:05;97484.66;;;20.13;42.50
21869;BME280;11099;41.564;23.296;2023-04-29T12:15:31;97453.38;;;20.12;41.44
21869;BME280;11099;41.564;23.296;2023-04-29T12:17:57;97349.16;;;19.13;41.62
21869;BME280;11099;41.564;23.296;2023-04-29T12:20:22;97394.56;;;18.81;42.59
21869;BME280;11099;41.564;23.296;2023-04-29T12:22:48;97480.63;;;19.39;42.42
21869;BME280;11099;41.564;23.296;2023-04-29T12:25:14;97403.13;;;19.13;43.25
21869;BME280;11099;41.564;23.296;2023-04-29T12:27:40;97470.16;;;19.38;42.44
21869;BME280;11099;41.564;23.296;2023-04-29T12:30:08;97465.00;;;19.82;41.59
21869;BME280;11099;41.564;23.296;2023-04-29T12:32:34;97316.88;;;18.90;42.16
21869;BME280;11099;41.564;23.296;2023-04-29T12:35:02;97442.97;;;19.80;41.60
21869;BME280;11099;41.564;23.296;2023-04-29T12:37:27;97438.47;;;19.91;42.07
21869;BME280;11099;41.564;23.296;2023-04-29T12:39:56;97404.09;;;19.58;44.05
21869;BME280;11099;41.564;23.296;2023-04-29T12:42:22;97351.31;;;19.31;44.25
21869;BME280;11099;41.564;23.296;2023-04-29T12:44:47;97358.09;;;19.17;43.11
21869;BME280;11099;41.564;23.296;2023-04-29T12:47:14;97364.16;;;19.11;44.04
21869;BME280;11099;41.564;23.296;2023-04-29T12:49:41;97416.06;;;19.57;43.65
21869;BME280;11099;41.564;23.296;2023-04-29T12:52:10;97454.63;;;19.84;43.97
21869;BME280;11099;41.564;23.296;2023-04-29T12:54:37;97354.13;;;19.11;43.55
21869;BME280;11099;41.564;23.296;2023-04-29T12:57:06;97462.34;;;20.19;43.79
21869;BME280;11099;41.564;23.296;2023-04-29T12:59:31;97462.72;;;20.21;42.02
21869;BME280;11099;41.564;23.296;2023-04-29T13:01:57;97376.22;;;19.81;42.17
21869;BME280;11099;41.564;23.296;2023-04-29T13:04:22;97448.59;;;20.35;41.72
21869;BME280;11099;41.564;23.296;2023-04-29T13:06:48;97398.84;;;20.03;41.39
21869;BME280;11099;41.564;23.296;2023-04-29T13:09:13;97399.72;;;20.14;41.92
21869;BME280;11099;41.564;23.296;2023-04-29T13:11:39;97445.09;;;19.97;41.48
21869;BME280;11099;41.564;23.296;2023-04-29T13:14:05;97404.59;;;19.64;41.62
21869;BME280;11099;41.564;23.296;2023-04-29T13:16:34;97386.69;;;19.56;40.55
21869;BME280;11099;41.564;23.296;2023-04-29T13:19:00;97408.78;;;19.61;40.29
21869;BME280;11099;41.564;23.296;2023-04-29T13:21:26;97361.50;;;19.44;40.24
21869;BME280;11099;41.564;23.296;2023-04-29T13:23:55;97431.97;;;20.33;39.73
21869;BME280;11099;41.564;23.296;2023-04-29T13:26:20;97432.81;;;20.41;40.25